Time;durP1;ratioP1;P1;durP2;ratioP2;P2;SDS_P1;SDS_P2;PMS_P1;PMS_P2;Temp;Humidity;BMP_temperature;BMP_pressure;BME280_temperature;BME280_humidity;BME280_pressure;Samples;Min_cycle;Max_cycle;Signal;HPM_P1;HPM_P2
2023/01/13 00:01:33;;;;;;;30.98;5.15;;;;;;;9.08;100.00;100314.81;5009580;28;20022;-61
2023/01/13 00:03:59;;;;;;;34.88;5.22;;;;;;;9.04;100.00;100319.34;5009294;28;20060;-62
2023/01/13 00:06:25;;;;;;;50.33;6.50;;;;;;;9.06;100.00;100316.66;5009790;28;20037;-59
2023/01/13 00:08:51;;;;;;;37.72;5.60;;;;;;;9.13;100.00;100314.66;5008658;28;20026;-61
2023/01/13 00:11:18;;;;;;;29.50;5.55;;;;;;;9.07;100.00;100332.38;5009943;28;20040;-55
2023/01/13 00:13:43;;;;;;;40.17;6.70;;;;;;;9.04;100.00;100329.88;4991423;28;20029;-61
2023/01/13 00:16:14;;;;;;;31.02;5.75;;;;;;;9.14;100.00;100327.75;4989082;28;20027;-60
2023/01/13 00:18:40;;;;;;;43.22;5.72;;;;;;;9.13;100.00;100339.19;4989713;28;20023;-58
2023/01/13 00:21:05;;;;;;;32.72;4.82;;;;;;;9.14;100.00;100342.66;4990086;28;20018;-59
2023/01/13 00:23:34;;;;;;;32.17;5.03;;;;;;;9.19;100.00;100340.72;4989079;28;20034;-62
2023/01/13 00:26:04;;;;;;;35.13;6.15;;;;;;;9.37;100.00;100333.06;4988951;28;20023;-63
2023/01/13 00:28:29;;;;;;;34.72;4.82;;;;;;;9.41;100.00;100334.66;4989812;28;20029;-61
2023/01/13 00:30:57;;;;;;;42.15;7.88;;;;;;;9.45;100.00;100317.88;5000529;28;20476;-57
2023/01/13 00:33:23;;;;;;;37.07;5.63;;;;;;;9.50;100.00;100329.06;5009504;28;20380;-62
2023/01/13 00:35:56;;;;;;;40.78;6.32;;;;;;;9.42;100.00;100316.22;5008884;28;20088;-61
2023/01/13 00:38:21;;;;;;;37.33;5.22;;;;;;;9.58;100.00;100315.63;5008755;28;20033;-63
2023/01/13 00:41:04;;;;;;;30.73;5.38;;;;;;;9.56;100.00;100306.94;5009435;28;20062;-62
2023/01/13 00:43:32;;;;;;;41.67;5.95;;;;;;;9.67;100.00;100314.44;4991413;28;20060;-61
2023/01/13 00:45:57;;;;;;;35.28;5.15;;;;;;;9.68;100.00;100305.59;5008818;28;20046;-60
2023/01/13 00:48:24;;;;;;;45.30;5.72;;;;;;;9.31;100.00;100303.47;4992005;28;20022;-62
2023/01/13 00:50:56;;;;;;;49.38;6.85;;;;;;;9.53;100.00;100302.66;4988936;28;20034;-62
2023/01/13 00:53:22;;;;;;;45.55;5.75;;;;;;;9.49;100.00;100303.69;4970682;28;20566;-62
2023/01/13 00:55:47;;;;;;;47.67;6.82;;;;;;;9.42;100.00;100310.94;4989524;28;20118;-61
2023/01/13 00:58:12;;;;;;;60.20;8.43;;;;;;;9.44;100.00;100281.97;4988739;28;20018;-61
2023/01/13 01:00:38;;;;;;;40.92;6.43;;;;;;;9.35;100.00;100270.91;4997452;28;20022;-61
2023/01/13 01:03:07;;;;;;;50.33;7.13;;;;;;;9.27;100.00;100261.59;5007718;28;20126;-62
2023/01/13 01:05:33;;;;;;;40.92;6.68;;;;;;;9.27;100.00;100272.94;5008119;28;20032;-63
2023/01/13 01:07:58;;;;;;;46.15;7.53;;;;;;;9.22;100.00;100273.09;5007806;28;20102;-62
2023/01/13 01:10:23;;;;;;;49.03;5.82;;;;;;;9.21;100.00;100271.41;5008686;28;20409;-60
2023/01/13 01:12:49;;;;;;;44.80;6.95;;;;;;;9.20;100.00;100274.09;5009064;28;20033;-62
2023/01/13 01:15:15;;;;;;;34.20;6.18;;;;;;;9.23;100.00;100282.72;5008552;28;20026;-58
2023/01/13 01:17:41;;;;;;;39.80;5.90;;;;;;;9.18;100.00;100291.72;5007684;28;20393;-61
2023/01/13 01:20:07;;;;;;;53.55;6.75;;;;;;;9.27;100.00;100295.75;5007549;28;20022;-62
2023/01/13 01:22:32;;;;;;;44.72;6.22;;;;;;;9.27;100.00;100291.34;5007305;28;20018;-61
2023/01/13 01:24:57;;;;;;;40.22;5.90;;;;;;;9.35;100.00;100284.03;5007546;28;20030;-62
2023/01/13 01:27:23;;;;;;;43.63;6.28;;;;;;;9.26;100.00;100299.28;5007518;28;20026;-63
2023/01/13 01:29:48;;;;;;;49.30;7.38;;;;;;;9.25;100.00;100277.41;5007107;28;20030;-62
2023/01/13 01:32:13;;;;;;;55.30;6.45;;;;;;;9.18;100.00;100282.03;5007377;28;20023;-59
2023/01/13 01:34:39;;;;;;;51.03;6.88;;;;;;;9.19;100.00;100289.03;5007753;28;20030;-60
2023/01/13 01:37:04;;;;;;;50.80;7.28;;;;;;;9.26;100.00;100284.38;5007286;28;20105;-63
2023/01/13 01:39:30;;;;;;;39.28;5.40;;;;;;;9.07;100.00;100285.06;4989009;28;20053;-61
2023/01/13 01:45:00;;;;;;;38.30;6.22;;;;;;;9.05;100.00;100281.63;5008030;28;20037;-63
2023/01/13 01:47:27;;;;;;;41.75;7.75;;;;;;;8.96;100.00;100274.94;5008279;28;20446;-62
2023/01/13 01:49:52;;;;;;;51.47;7.68;;;;;;;9.03;100.00;100278.19;4973922;28;20025;-64
2023/01/13 01:52:26;;;;;;;46.42;6.55;;;;;;;8.98;100.00;100278.34;4990127;28;20038;-61
2023/01/13 01:54:59;;;;;;;41.53;6.13;;;;;;;8.87;100.00;100282.28;4972740;28;20461;-61
2023/01/13 01:57:35;;;;;;;52.33;6.78;;;;;;;8.95;100.00;100280.25;4989417;28;20416;-62
2023/01/13 02:00:02;;;;;;;42.55;6.53;;;;;;;8.96;100.00;100287.22;4973318;28;20034;-61
2023/01/13 02:02:28;;;;;;;50.25;7.43;;;;;;;9.03;100.00;100282.59;5007090;28;20022;-62
2023/01/13 02:04:55;;;;;;;47.75;6.70;;;;;;;8.97;100.00;100283.66;5007391;28;20065;-61
2023/01/13 02:07:24;;;;;;;49.92;6.55;;;;;;;9.03;100.00;100278.19;5007353;28;20464;-60
2023/01/13 02:09:50;;;;;;;53.53;7.35;;;;;;;9.07;100.00;100260.56;5057239;23;20058;-61
2023/01/13 02:12:28;;;;;;;44.13;6.57;;;;;;;9.02;100.00;100271.22;4987186;28;20034;-59
2023/01/13 02:14:54;;;;;;;53.58;7.53;;;;;;;9.04;100.00;100253.66;4987315;28;20101;-61
2023/01/13 02:17:44;;;;;;;41.35;6.07;;;;;;;9.09;100.00;100235.91;4992291;28;20036;-63
2023/01/13 02:20:31;;;;;;;50.22;6.85;;;;;;;9.08;100.00;100238.59;4990125;28;20152;-60
2023/01/13 02:26:30;;;;;;;46.85;5.72;;;;;;;8.90;100.00;100251.50;5007764;28;20041;-62
2023/01/13 02:31:58;;;;;;;46.60;5.90;;;;;;;8.84;100.00;100226.31;5007372;28;20124;-62
2023/01/13 02:34:36;;;;;;;45.03;6.72;;;;;;;8.85;100.00;100232.41;4988925;28;20520;-63
2023/01/13 02:37:06;;;;;;;45.33;7.10;;;;;;;8.96;100.00;100234.66;4989182;28;20026;-58
2023/01/13 02:39:35;;;;;;;45.03;7.32;;;;;;;9.04;100.00;100248.38;4989950;28;20121;-61
2023/01/13 02:45:02;;;;;;;36.58;6.70;;;;;;;9.10;100.00;100231.53;4992567;28;20092;-64
2023/01/13 02:47:29;;;;;;;43.47;6.18;;;;;;;9.15;100.00;100241.88;4989460;28;20033;-60
2023/01/13 02:49:59;;;;;;;33.58;5.75;;;;;;;9.14;100.00;100245.41;4991935;28;20029;-63
2023/01/13 02:52:30;;;;;;;32.75;6.25;;;;;;;9.10;100.00;100248.13;4992000;28;20026;-61
2023/01/13 02:55:01;;;;;;;44.38;7.10;;;;;;;9.17;100.00;100247.91;4993495;28;20072;-62
2023/01/13 02:57:27;;;;;;;40.20;6.15;;;;;;;9.15;100.00;100236.63;4993736;28;20735;-64
2023/01/13 02:59:53;;;;;;;33.90;6.80;;;;;;;9.14;100.00;100240.13;4990561;28;20571;-60
2023/01/13 03:02:20;;;;;;;37.58;5.28;;;;;;;9.13;100.00;100251.56;4989758;28;20075;-60
2023/01/13 03:04:57;;;;;;;37.63;7.38;;;;;;;9.05;100.00;100241.34;4993523;28;20032;-63
2023/01/13 03:07:54;;;;;;;43.25;5.55;;;;;;;9.09;100.00;100233.28;4993434;28;20387;-63
2023/01/13 03:10:32;;;;;;;33.72;5.63;;;;;;;8.99;100.00;100242.44;5011652;28;20500;-62
2023/01/13 03:13:16;;;;;;;38.20;5.47;;;;;;;8.95;100.00;100241.72;5011327;28;20459;-64
2023/01/13 03:15:53;;;;;;;24.35;4.60;;;;;;;8.98;100.00;100253.88;5011649;28;20100;-63
2023/01/13 03:18:28;;;;;;;39.67;5.47;;;;;;;9.01;100.00;100253.75;5011475;28;20047;-59
2023/01/13 03:21:07;;;;;;;22.83;4.95;;;;;;;9.06;100.00;100249.16;4994299;28;20036;-63
2023/01/13 03:23:40;;;;;;;25.67;4.43;;;;;;;9.05;100.00;100231.69;5009757;28;20096;-63
2023/01/13 03:26:14;;;;;;;27.95;4.53;;;;;;;9.14;100.00;100251.53;4977311;28;20519;-62
2023/01/13 03:28:53;;;;;;;34.28;4.88;;;;;;;9.04;100.00;100226.50;4993691;28;20022;-63
2023/01/13 03:31:24;;;;;;;28.50;3.75;;;;;;;9.09;100.00;100237.69;4993476;28;20063;-63
2023/01/13 03:34:16;;;;;;;24.33;4.00;;;;;;;9.00;100.00;100222.28;4993552;28;20054;-62
2023/01/13 03:36:43;;;;;;;27.23;4.57;;;;;;;8.98;100.00;100241.56;4988690;28;20053;-62
2023/01/13 03:39:12;;;;;;;20.65;3.47;;;;;;;8.95;100.00;100239.09;5009908;28;20018;-61
2023/01/13 03:41:42;;;;;;;;;;;;;;;8.92;100.00;100233.06;4977416;28;20052;-62
2023/01/13 03:44:24;;;;;;;30.80;5.13;;;;;;;8.87;100.00;100220.09;4992856;28;19914;-61
2023/01/13 03:47:07;;;;;;;28.75;4.13;;;;;;;8.87;100.00;100235.00;4990698;28;20035;-65
2023/01/13 03:49:48;;;;;;;27.77;4.15;;;;;;;8.78;100.00;100226.53;4991348;28;20471;-61
2023/01/13 03:52:22;;;;;;;23.80;3.88;;;;;;;8.72;100.00;100216.25;5009164;28;20018;-63
2023/01/13 03:54:57;;;;;;;37.60;4.70;;;;;;;8.71;100.00;100236.44;4993459;28;20022;-63
2023/01/13 03:57:25;;;;;;;27.85;3.85;;;;;;;8.75;100.00;100228.41;4993059;28;20022;-64
2023/01/13 03:59:54;;;;;;;31.55;4.35;;;;;;;8.76;100.00;100238.88;4990562;28;20017;-63
2023/01/13 04:02:49;;;;;;;21.60;2.97;;;;;;;8.60;100.00;100228.06;4992637;28;20022;-62
2023/01/13 04:05:16;;;;;;;23.63;3.80;;;;;;;8.69;100.00;100240.88;4991673;28;20022;-64
2023/01/13 04:08:00;;;;;;;35.60;5.03;;;;;;;8.72;100.00;100248.66;5009236;28;20034;-63
2023/01/13 04:10:34;;;;;;;22.23;3.42;;;;;;;8.76;100.00;100244.13;4973075;28;20053;-63
2023/01/13 04:13:21;;;;;;;18.45;3.08;;;;;;;8.73;100.00;100238.97;4975525;28;20026;-62
2023/01/13 04:15:47;;;;;;;23.23;3.60;;;;;;;8.61;100.00;100242.91;4992491;28;20025;-64
2023/01/13 04:18:24;;;;;;;15.52;3.00;;;;;;;8.72;100.00;100232.00;4991499;28;20025;-63
2023/01/13 04:20:51;;;;;;;25.10;3.78;;;;;;;8.54;100.00;100258.03;5010556;28;20044;-64
2023/01/13 04:23:18;;;;;;;23.48;3.63;;;;;;;8.56;100.00;100257.97;4992288;28;20022;-64
2023/01/13 04:25:44;;;;;;;29.25;3.47;;;;;;;8.61;100.00;100244.69;5008403;28;20066;-58
2023/01/13 04:28:09;;;;;;;14.77;2.88;;;;;;;8.66;100.00;100250.63;5009365;28;20169;-62
2023/01/13 04:30:35;;;;;;;13.95;2.55;;;;;;;8.65;100.00;100248.91;4992101;28;20026;-62
2023/01/13 04:33:02;;;;;;;16.90;3.55;;;;;;;8.66;100.00;100240.97;5009592;28;20503;-63
2023/01/13 04:35:28;;;;;;;20.58;3.75;;;;;;;8.77;100.00;100255.50;5009887;28;20125;-65
2023/01/13 04:37:53;;;;;;;15.35;2.20;;;;;;;8.71;100.00;100257.44;4991238;28;20149;-61
2023/01/13 04:40:19;;;;;;;20.70;3.70;;;;;;;8.77;100.00;100252.88;4994857;28;20058;-62
2023/01/13 04:42:44;;;;;;;19.05;3.00;;;;;;;8.92;100.00;100254.94;4989827;28;20042;-64
2023/01/13 04:45:10;;;;;;;21.25;3.22;;;;;;;8.93;100.00;100251.41;4988608;28;20039;-64
2023/01/13 04:47:36;;;;;;;17.67;3.50;;;;;;;8.87;100.00;100261.25;4972262;28;20113;-63
2023/01/13 04:50:02;;;;;;;24.38;4.35;;;;;;;8.94;100.00;100254.91;4971729;28;20580;-63
2023/01/13 04:52:27;;;;;;;16.45;2.72;;;;;;;8.97;100.00;100253.00;4978109;28;20030;-64
2023/01/13 04:54:52;;;;;;;21.55;3.25;;;;;;;8.98;100.00;100244.19;5009163;28;20033;-64
2023/01/13 04:57:18;;;;;;;23.05;2.92;;;;;;;9.04;100.00;100255.41;5008634;28;20044;-63
2023/01/13 04:59:43;;;;;;;21.80;3.33;;;;;;;9.10;100.00;100263.06;5009211;28;20064;-64
2023/01/13 05:02:08;;;;;;;25.00;3.28;;;;;;;9.02;100.00;100270.38;4990939;28;20034;-63
2023/01/13 05:04:34;;;;;;;27.30;3.75;;;;;;;8.95;100.00;100264.50;5008269;28;20032;-61
2023/01/13 05:07:00;;;;;;;20.65;3.03;;;;;;;8.95;100.00;100267.13;5008031;28;20399;-65
2023/01/13 05:09:25;;;;;;;28.08;2.83;;;;;;;8.89;100.00;100257.69;5008408;28;20056;-64
2023/01/13 05:17:21;;;;;;;26.67;4.00;;;;;;;8.95;100.00;100251.34;4993616;28;20488;-61
2023/01/13 05:19:46;;;;;;;23.85;3.83;;;;;;;9.02;100.00;100241.47;4959882;28;20022;-63
2023/01/13 05:27:41;;;;;;;15.85;2.50;;;;;;;8.93;100.00;100256.66;5008400;28;20177;-65
2023/01/13 05:30:07;;;;;;;26.50;4.43;;;;;;;8.90;100.00;100248.88;4990552;28;20108;-63
2023/01/13 05:32:32;;;;;;;20.50;3.00;;;;;;;8.87;100.00;100250.75;5007937;28;20033;-62
2023/01/13 05:34:58;;;;;;;23.33;5.47;;;;;;;8.88;100.00;100252.50;5008001;28;20365;-62
2023/01/13 05:37:24;;;;;;;27.63;3.67;;;;;;;8.89;100.00;100256.81;5006914;28;20029;-66
2023/01/13 05:45:17;;;;;;;21.75;3.38;;;;;;;8.85;100.00;100250.81;4992869;28;20046;-64
2023/01/13 05:47:43;;;;;;;24.13;3.20;;;;;;;8.82;100.00;100264.91;5007958;28;20106;-63
2023/01/13 05:50:09;;;;;;;16.45;2.70;;;;;;;8.79;100.00;100270.28;4990201;28;20026;-62
2023/01/13 05:52:34;;;;;;;22.45;3.40;;;;;;;8.78;100.00;100281.72;5006078;28;20570;-63
2023/01/13 05:55:00;;;;;;;23.27;4.00;;;;;;;8.81;100.00;100257.97;4989288;28;20037;-64
2023/01/13 05:57:25;;;;;;;27.42;3.88;;;;;;;8.73;100.00;100281.00;5008057;28;20036;-64
2023/01/13 05:59:50;;;;;;;23.20;3.15;;;;;;;8.94;100.00;100261.00;5006515;28;20030;-62
2023/01/13 06:02:16;;;;;;;23.42;3.20;;;;;;;8.92;100.00;100261.97;5007918;28;20026;-60
2023/01/13 06:04:41;;;;;;;23.92;4.00;;;;;;;8.90;100.00;100276.91;4989605;28;20041;-62
2023/01/13 06:07:06;;;;;;;25.35;3.33;;;;;;;8.97;100.00;100267.91;5006606;28;20034;-67
2023/01/13 06:09:32;;;;;;;31.77;3.70;;;;;;;8.84;100.00;100257.84;5008054;28;20057;-66
2023/01/13 06:11:57;;;;;;;24.15;3.63;;;;;;;8.97;100.00;100268.75;5008196;28;20455;-66
2023/01/13 06:14:22;;;;;;;18.95;3.13;;;;;;;9.02;100.00;100259.84;5007351;28;20041;-65
2023/01/13 06:16:48;;;;;;;26.90;3.42;;;;;;;8.93;100.00;100266.31;4990777;28;20034;-66
2023/01/13 06:19:13;;;;;;;32.00;3.90;;;;;;;8.96;100.00;100268.81;5005508;28;20034;-65
2023/01/13 06:21:39;;;;;;;21.10;3.22;;;;;;;9.05;100.00;100265.00;5006799;28;20093;-64
2023/01/13 06:24:05;;;;;;;22.00;3.40;;;;;;;8.95;100.00;100301.28;5008364;28;20275;-67
2023/01/13 06:26:35;;;;;;;32.85;4.18;;;;;;;9.08;100.00;100278.91;5011622;28;20455;-64
2023/01/13 06:29:00;;;;;;;21.67;3.95;;;;;;;9.09;100.00;100288.47;5011301;28;20105;-63
2023/01/13 06:31:27;;;;;;;23.90;4.13;;;;;;;9.13;100.00;100293.63;5011470;28;20026;-65
2023/01/13 06:33:58;;;;;;;24.20;4.13;;;;;;;9.05;100.00;100283.41;4992940;28;20057;-63
2023/01/13 06:36:36;;;;;;;18.33;3.85;;;;;;;9.04;100.00;100298.31;4992905;28;20025;-63
2023/01/13 06:39:03;;;;;;;29.00;3.60;;;;;;;9.14;100.00;100295.34;5010824;28;20037;-66
2023/01/13 06:44:14;;;;;;;26.13;3.22;;;;;;;9.04;100.00;100274.66;5011109;28;20037;-68
2023/01/13 06:46:39;;;;;;;23.15;3.78;;;;;;;9.20;100.00;100297.75;4992567;28;20037;-65
2023/01/13 06:49:05;;;;;;;33.65;4.57;;;;;;;9.18;100.00;100300.44;5010946;28;20053;-65
2023/01/13 06:51:31;;;;;;;29.92;4.18;;;;;;;9.19;100.00;100303.94;5010216;28;20037;-65
2023/01/13 06:53:56;;;;;;;29.15;4.90;;;;;;;9.26;100.00;100299.28;5010160;28;20030;-65
2023/01/13 06:56:21;;;;;;;22.27;3.33;;;;;;;9.15;100.00;100303.16;5010626;28;20503;-66
2023/01/13 06:58:47;;;;;;;30.50;3.80;;;;;;;9.22;100.00;100303.81;4993847;28;20499;-62
2023/01/13 07:01:12;;;;;;;19.48;3.88;;;;;;;9.28;100.00;100307.97;5011091;28;20025;-67
2023/01/13 07:03:39;;;;;;;23.10;3.83;;;;;;;9.20;100.00;100305.63;5011179;28;20026;-66
2023/01/13 07:06:04;;;;;;;17.63;3.60;;;;;;;9.31;100.00;100307.88;5010249;28;20061;-68
2023/01/13 07:08:30;;;;;;;35.08;4.25;;;;;;;9.17;100.00;100316.25;5010260;28;20030;-67
2023/01/13 07:10:55;;;;;;;22.80;3.92;;;;;;;9.23;100.00;100319.53;5009117;28;20674;-63
2023/01/13 07:16:06;;;;;;;25.85;4.45;;;;;;;9.25;100.00;100308.97;5009054;28;20108;-65
2023/01/13 07:18:33;;;;;;;26.67;3.70;;;;;;;9.22;100.00;100303.81;5010558;28;20044;-66
2023/01/13 07:21:03;;;;;;;19.90;4.07;;;;;;;9.21;100.00;100308.22;5010245;28;20032;-63
2023/01/13 07:23:31;;;;;;;21.67;3.83;;;;;;;9.24;100.00;100307.22;5009075;28;20486;-62
2023/01/13 07:25:58;;;;;;;29.58;4.07;;;;;;;9.15;100.00;100318.09;5009921;28;20034;-63
2023/01/13 07:28:24;;;;;;;22.38;4.45;;;;;;;9.09;100.00;100309.50;5009538;28;20103;-64
2023/01/13 07:30:49;;;;;;;22.65;3.75;;;;;;;9.20;100.00;100303.00;5009780;28;20017;-65
2023/01/13 07:33:15;;;;;;;31.30;4.47;;;;;;;9.18;100.00;100318.84;4992522;28;20543;-63
2023/01/13 07:35:40;;;;;;;25.95;3.75;;;;;;;9.19;100.00;100315.31;5008908;28;20030;-65
2023/01/13 07:38:07;;;;;;;19.95;3.40;;;;;;;9.24;100.00;100312.47;5009389;28;20022;-65
2023/01/13 07:40:32;;;;;;;31.83;4.00;;;;;;;9.18;100.00;100315.38;5009439;28;20037;-61
2023/01/13 07:45:41;;;;;;;19.55;3.33;;;;;;;9.22;100.00;100324.84;5010189;28;20096;-63
2023/01/13 07:48:07;;;;;;;24.95;3.40;;;;;;;9.26;100.00;100325.56;5009985;28;20475;-64
2023/01/13 07:50:32;;;;;;;26.20;3.78;;;;;;;9.15;100.00;100328.63;5029043;28;20067;-66
2023/01/13 07:52:58;;;;;;;23.58;3.92;;;;;;;9.20;100.00;100326.66;5028888;28;20466;-63
2023/01/13 07:55:23;;;;;;;23.83;4.88;;;;;;;9.35;100.00;100334.00;5029211;28;20059;-64
2023/01/13 07:57:49;;;;;;;22.60;4.18;;;;;;;9.30;100.00;100348.25;5029177;28;20431;-63
2023/01/13 08:00:15;;;;;;;23.70;3.60;;;;;;;9.26;100.00;100352.72;5029334;28;20080;-63
2023/01/13 08:02:40;;;;;;;32.63;4.18;;;;;;;9.26;100.00;100363.25;5009914;28;20033;-65
2023/01/13 08:05:06;;;;;;;32.05;4.20;;;;;;;9.33;100.00;100337.59;5008155;28;20021;-62
2023/01/13 08:07:31;;;;;;;24.38;3.90;;;;;;;9.34;100.00;100339.31;5007487;28;20037;-64
2023/01/13 08:09:57;;;;;;;28.63;3.88;;;;;;;9.27;100.00;100370.22;4990898;28;20045;-65
2023/01/13 08:15:08;;;;;;;26.42;4.75;;;;;;;9.26;100.00;100354.50;5007022;28;20040;-62
2023/01/13 08:17:34;;;;;;;21.23;3.58;;;;;;;9.34;100.00;100365.59;5008342;28;20022;-60
2023/01/13 08:19:59;;;;;;;28.10;4.68;;;;;;;9.24;100.00;100365.06;5007395;28;20037;-67
2023/01/13 08:22:25;;;;;;;31.65;3.97;;;;;;;9.03;100.00;100388.56;5006900;28;20507;-62
2023/01/13 08:24:50;;;;;;;37.95;4.55;;;;;;;8.95;100.00;100380.09;5006381;28;20468;-58
2023/01/13 08:27:15;;;;;;;30.23;5.25;;;;;;;9.01;100.00;100390.41;5007489;28;20033;-61
2023/01/13 08:29:41;;;;;;;30.83;4.60;;;;;;;8.88;100.00;100392.59;5007894;28;20029;-66
2023/01/13 08:32:06;;;;;;;27.30;4.07;;;;;;;8.69;100.00;100401.09;5008066;28;20018;-64
2023/01/13 08:34:31;;;;;;;22.67;4.72;;;;;;;8.69;100.00;100387.09;5007089;28;20044;-64
2023/01/13 08:36:57;;;;;;;33.65;4.22;;;;;;;8.59;100.00;100390.03;5006231;28;20022;-61
2023/01/13 08:39:23;;;;;;;31.13;4.65;;;;;;;8.61;100.00;100404.88;5003822;28;20057;-62
2023/01/13 08:41:55;;;;;;;30.88;4.43;;;;;;;8.50;100.00;100403.44;5005968;28;20029;-61
2023/01/13 08:44:25;;;;;;;26.60;6.22;;;;;;;8.50;100.00;100399.94;4989718;28;20022;-61
2023/01/13 08:46:50;;;;;;;29.92;4.22;;;;;;;8.50;100.00;100400.81;5005794;28;20120;-62
2023/01/13 08:49:16;;;;;;;32.50;5.30;;;;;;;8.50;100.00;100406.06;5005058;28;20457;-65
2023/01/13 08:51:41;;;;;;;34.63;4.85;;;;;;;8.50;100.00;100410.44;5002500;28;20061;-64
2023/01/13 08:54:07;;;;;;;23.73;3.88;;;;;;;8.40;100.00;100394.97;5000728;28;20484;-62
2023/01/13 08:56:32;;;;;;;40.22;4.93;;;;;;;8.40;100.00;100409.91;5003905;28;20049;-61
2023/01/13 08:58:58;;;;;;;26.05;4.80;;;;;;;8.45;100.00;100408.84;4998462;28;20145;-64
2023/01/13 09:01:24;;;;;;;28.67;3.85;;;;;;;8.49;100.00;100416.63;5006396;28;20022;-63
2023/01/13 09:03:50;;;;;;;30.40;4.30;;;;;;;8.45;100.00;100419.34;5007643;28;20022;-63
2023/01/13 09:06:15;;;;;;;26.58;4.28;;;;;;;8.50;100.00;100416.56;5007033;28;20014;-63
2023/01/13 09:08:42;;;;;;;27.05;3.67;;;;;;;8.56;100.00;100419.03;5001797;28;20029;-60
2023/01/13 09:14:02;;;;;;;29.58;3.70;;;;;;;8.72;100.00;100447.41;4987830;28;20038;-65
2023/01/13 09:16:27;;;;;;;26.75;3.33;;;;;;;8.76;100.00;100430.63;5007866;28;20395;-63
2023/01/13 09:18:53;;;;;;;28.92;4.35;;;;;;;8.92;100.00;100428.38;5006790;28;20468;-61
2023/01/13 09:21:19;;;;;;;31.00;4.18;;;;;;;9.00;100.00;100443.03;5006734;28;20032;-65
2023/01/13 09:23:45;;;;;;;27.83;3.95;;;;;;;9.04;100.00;100447.25;5007481;28;20026;-66
2023/01/13 09:26:11;;;;;;;25.42;4.75;;;;;;;9.13;100.00;100435.56;5007440;28;20399;-66
2023/01/13 09:28:36;;;;;;;30.30;5.60;;;;;;;9.14;100.00;100437.28;4974453;28;20380;-67
2023/01/13 09:31:02;;;;;;;25.08;3.72;;;;;;;9.16;100.00;100457.38;5007920;28;20025;-62
2023/01/13 09:36:11;;;;;;;31.52;4.97;;;;;;;9.21;100.00;100475.59;4986866;28;20046;-67
2023/01/13 09:38:36;;;;;;;25.90;4.70;;;;;;;9.18;100.00;100466.03;5000357;28;20021;-65
2023/01/13 09:43:52;;;;;;;26.23;3.50;;;;;;;9.28;100.00;100460.47;4990903;28;20113;-64
2023/01/13 09:43:52;;;;;;;30.95;4.07;;;;;;;9.15;100.00;100467.94;4985215;28;21309;-67
2023/01/13 09:49:19;;;;;;;28.73;4.20;;;;;;;9.44;100.00;100476.56;4988799;28;20084;-67
2023/01/13 09:52:06;;;;;;;23.52;4.25;;;;;;;9.38;100.00;100482.03;4983679;28;20084;-67
2023/01/13 09:54:50;;;;;;;18.42;3.30;;;;;;;9.43;100.00;100517.81;5005696;28;20045;-68
2023/01/13 09:57:17;;;;;;;28.85;4.15;;;;;;;9.53;100.00;100497.28;5006088;28;20042;-64
2023/01/13 09:59:43;;;;;;;20.70;3.63;;;;;;;9.52;100.00;100495.59;4993720;28;20572;-65
2023/01/13 10:02:23;;;;;;;27.70;4.45;;;;;;;9.54;100.00;100516.56;4992749;28;20576;-65
2023/01/13 10:05:26;;;;;;;26.77;4.10;;;;;;;9.46;100.00;100516.84;5011627;28;20033;-66
2023/01/13 10:07:56;;;;;;;29.67;5.22;;;;;;;9.65;100.00;100517.06;4951880;28;20034;-63
2023/01/13 10:10:43;;;;;;;23.38;4.10;;;;;;;9.61;100.00;100507.56;4993423;28;20100;-64
2023/01/13 10:13:27;;;;;;;19.15;3.60;;;;;;;9.57;100.00;100509.41;4987306;28;20021;-67
2023/01/13 10:16:10;;;;;;;24.58;3.67;;;;;;;9.58;100.00;100516.38;4983701;28;20026;-62
2023/01/13 10:18:57;;;;;;;23.00;3.40;;;;;;;9.65;100.00;100518.81;5009247;28;20022;-67
2023/01/13 10:21:47;;;;;;;21.27;4.03;;;;;;;9.58;100.00;100529.53;5010893;28;20040;-66
2023/01/13 10:24:19;;;;;;;20.33;3.10;;;;;;;9.72;100.00;100513.28;5008118;28;20069;-65
2023/01/13 10:27:05;;;;;;;18.60;3.20;;;;;;;9.63;100.00;100546.97;4983110;28;20488;-66
2023/01/13 10:29:33;;;;;;;27.77;3.58;;;;;;;9.61;100.00;100553.09;4988266;28;20025;-65
2023/01/13 10:31:59;;;;;;;25.88;3.60;;;;;;;9.68;100.00;100545.00;5010299;28;20030;-65
2023/01/13 10:34:25;;;;;;;18.13;3.35;;;;;;;9.73;100.00;100551.81;5008512;28;20408;-67
2023/01/13 10:36:56;;;;;;;17.67;3.00;;;;;;;9.65;100.00;100559.13;4976097;28;20061;-64
2023/01/13 10:39:22;;;;;;;20.08;3.45;;;;;;;9.68;100.00;100543.25;5009055;28;20038;-65
2023/01/13 10:41:47;;;;;;;20.67;3.08;;;;;;;9.65;100.00;100592.47;5010233;28;20037;-66
2023/01/13 10:44:15;;;;;;;17.73;3.85;;;;;;;9.60;100.00;100548.78;5008737;28;20026;-65
2023/01/13 10:46:57;;;;;;;16.42;2.50;;;;;;;9.52;100.00;100556.09;4992397;28;20077;-65
2023/01/13 10:49:32;;;;;;;24.67;4.05;;;;;;;9.54;100.00;100619.16;5016032;28;20538;-64
2023/01/13 10:51:58;;;;;;;19.63;3.00;;;;;;;9.60;100.00;100567.19;5009896;28;20034;-67
2023/01/13 10:54:25;;;;;;;18.83;3.30;;;;;;;9.64;100.00;100573.22;5009776;28;20026;-65
2023/01/13 10:57:16;;;;;;;19.02;3.63;;;;;;;9.79;100.00;100587.63;5008805;28;20531;-64
2023/01/13 10:59:42;;;;;;;15.27;3.05;;;;;;;9.88;100.00;100583.81;4992414;28;20041;-63
2023/01/13 11:02:07;;;;;;;17.80;3.15;;;;;;;9.95;100.00;100605.47;5009528;28;20022;-63
2023/01/13 11:04:37;;;;;;;20.10;3.00;;;;;;;9.85;100.00;100597.91;5010269;28;20045;-65
2023/01/13 11:07:05;;;;;;;16.05;2.97;;;;;;;9.80;100.00;100599.84;5008684;28;20543;-68
2023/01/13 11:09:31;;;;;;;18.77;3.13;;;;;;;9.77;100.00;100602.59;4991387;28;20121;-65
2023/01/13 11:11:56;;;;;;;17.40;3.45;;;;;;;9.80;100.00;100599.84;5008679;28;20472;-66
2023/01/13 11:14:40;;;;;;;18.15;3.45;;;;;;;9.96;100.00;100578.25;5010491;28;20018;-66
2023/01/13 11:17:24;;;;;;;13.25;3.10;;;;;;;9.90;100.00;100600.38;5009515;28;20045;-66
2023/01/13 11:19:54;;;;;;;24.92;3.95;;;;;;;9.97;100.00;100590.50;5009626;28;20385;-65
2023/01/13 11:22:24;;;;;;;22.65;3.22;;;;;;;9.97;100.00;100595.78;4973004;28;20499;-66
2023/01/13 11:25:12;;;;;;;22.13;2.67;;;;;;;10.10;100.00;100611.97;4991372;28;20026;-65
2023/01/13 11:27:45;;;;;;;23.85;3.13;;;;;;;9.89;100.00;100619.72;4973331;28;20461;-65
2023/01/13 11:30:36;;;;;;;16.95;2.92;;;;;;;9.95;100.00;100605.47;4972880;28;20026;-64
2023/01/13 11:33:14;;;;;;;17.13;3.50;;;;;;;9.92;100.00;100626.66;5005735;28;20452;-65
2023/01/13 11:36:11;;;;;;;27.15;3.67;;;;;;;9.93;100.00;100623.13;4992158;28;20032;-66
2023/01/13 11:38:49;;;;;;;26.70;3.75;;;;;;;9.98;100.00;100629.94;4949611;28;20038;-63
2023/01/13 11:42:19;;;;;;;21.77;2.70;;;;;;;9.97;100.00;100637.88;4982890;28;20022;-66
2023/01/13 11:44:42;;;;;;;24.80;2.85;;;;;;;10.05;100.00;100649.00;5009857;28;20033;-61
2023/01/13 11:47:09;;;;;;;23.58;3.47;;;;;;;10.13;100.00;100635.56;5009607;28;20026;-67
2023/01/13 11:49:34;;;;;;;17.63;3.22;;;;;;;10.19;100.00;100621.31;4999334;28;20030;-67
2023/01/13 11:52:20;;;;;;;22.15;3.60;;;;;;;10.07;100.00;100644.56;5003656;28;20033;-63
2023/01/13 11:54:59;;;;;;;24.13;3.38;;;;;;;10.21;100.00;100641.41;4978085;28;20038;-68
2023/01/13 11:57:31;;;;;;;21.77;2.70;;;;;;;10.26;100.00;100691.28;4996435;28;20108;-68
2023/01/13 12:00:33;;;;;;;16.17;2.53;;;;;;;10.30;100.00;100645.47;4989995;28;20038;-67
2023/01/13 12:03:28;;;;;;;15.38;2.90;;;;;;;10.43;100.00;100635.38;5002770;28;20399;-67
2023/01/13 12:06:23;;;;;;;19.23;2.80;;;;;;;10.59;99.52;100651.50;4974706;28;20046;-66
2023/01/13 12:08:58;;;;;;;19.65;3.30;;;;;;;10.59;98.10;100619.03;4988023;28;20520;-63
2023/01/13 12:11:31;;;;;;;16.83;3.45;;;;;;;10.51;98.90;100687.84;4989662;28;20622;-66
2023/01/13 12:13:56;;;;;;;13.27;2.50;;;;;;;10.49;99.24;100653.63;4974252;28;20117;-66
2023/01/13 12:16:25;;;;;;;18.00;3.00;;;;;;;10.46;98.76;100679.22;4989397;28;20536;-66
2023/01/13 12:19:06;;;;;;;16.55;2.60;;;;;;;10.48;99.77;100674.78;4971512;28;20026;-66